Terminal Aerodrome Forecast
Issued by NWS

Home | Current Version | Previous Version | Text Only | Print | Product List | Glossary On
Versions: 1 2 3 4 5 6 7 8 9 10 11 12 13 14 15 16 17 18 19 20 21 22 23 24 25 26 27 28 29
000
FTUS41 KPBZ 301400 AAA
TAFAGC
TAF AMD
KAGC 301412Z 3014/3112 30012G24KT 5SM -SHSN OVC015
      TEMPO 3014/3017 2SM -SHSN BKN008
     FM301700 32013G24KT P6SM OVC025
     FM310400 30009KT P6SM SCT020=

USA.gov is the U.S. government's official web portal to all federal, state and local government web resources and services.